sensor_id;sensor_type;location;lat;lon;timestamp;pressure;altitude;pressure_sealevel;temperature;humidity
35649;BME280;21768;48.562;13.414;2023-04-01T00:01:39;95982.81;;;10.47;63.77
35649;BME280;21768;48.562;13.414;2023-04-01T00:04:05;95982.75;;;10.46;63.63
35649;BME280;21768;48.562;13.414;2023-04-01T00:06:30;95978.69;;;10.49;63.36
35649;BME280;21768;48.562;13.414;2023-04-01T00:08:56;95984.59;;;10.50;62.85
35649;BME280;21768;48.562;13.414;2023-04-01T00:11:21;95987.91;;;10.49;63.03
35649;BME280;21768;48.562;13.414;2023-04-01T00:13:48;95979.44;;;10.47;63.30
35649;BME280;21768;48.562;13.414;2023-04-01T00:16:13;95972.78;;;10.49;63.21
35649;BME280;21768;48.562;13.414;2023-04-01T00:18:39;95976.25;;;10.51;62.66
35649;BME280;21768;48.562;13.414;2023-04-01T00:21:06;95985.59;;;10.53;62.72
35649;BME280;21768;48.562;13.414;2023-04-01T00:23:31;95989.84;;;10.54;62.44
35649;BME280;21768;48.562;13.414;2023-04-01T00:26:00;95980.56;;;10.53;62.84
35649;BME280;21768;48.562;13.414;2023-04-01T00:28:26;95975.50;;;10.53;62.33
35649;BME280;21768;48.562;13.414;2023-04-01T00:30:51;95971.25;;;10.52;62.17
35649;BME280;21768;48.562;13.414;2023-04-01T00:33:17;95977.16;;;10.53;62.32
35649;BME280;21768;48.562;13.414;2023-04-01T00:35:43;95984.59;;;10.50;62.28
35649;BME280;21768;48.562;13.414;2023-04-01T00:38:08;95980.28;;;10.47;61.91
35649;BME280;21768;48.562;13.414;2023-04-01T00:40:39;95987.78;;;10.46;61.91
35649;BME280;21768;48.562;13.414;2023-04-01T00:43:15;95981.88;;;10.45;61.91
35649;BME280;21768;48.562;13.414;2023-04-01T00:45:44;95979.38;;;10.45;61.61
35649;BME280;21768;48.562;13.414;2023-04-01T00:48:11;95984.28;;;10.42;61.73
35649;BME280;21768;48.562;13.414;2023-04-01T00:50:40;95996.88;;;10.42;60.81
35649;BME280;21768;48.562;13.414;2023-04-01T00:53:07;95997.56;;;10.38;61.33
35649;BME280;21768;48.562;13.414;2023-04-01T00:55:35;95995.16;;;10.41;61.32
35649;BME280;21768;48.562;13.414;2023-04-01T00:58:05;95998.47;;;10.40;61.26
35649;BME280;21768;48.562;13.414;2023-04-01T01:00:33;95997.75;;;10.43;61.43
35649;BME280;21768;48.562;13.414;2023-04-01T01:02:59;96005.38;;;10.44;61.67
35649;BME280;21768;48.562;13.414;2023-04-01T01:11:06;96008.44;;;10.37;62.06
35649;BME280;21768;48.562;13.414;2023-04-01T01:16:21;96005.00;;;10.35;61.75
35649;BME280;21768;48.562;13.414;2023-04-01T01:21:47;96006.59;;;10.33;61.99
35649;BME280;21768;48.562;13.414;2023-04-01T01:24:25;96016.75;;;10.35;61.50
35649;BME280;21768;48.562;13.414;2023-04-01T01:27:02;96009.91;;;10.32;61.55
35649;BME280;21768;48.562;13.414;2023-04-01T01:30:08;96016.66;;;10.33;61.36
35649;BME280;21768;48.562;13.414;2023-04-01T01:37:50;96013.56;;;10.39;62.03
35649;BME280;21768;48.562;13.414;2023-04-01T01:40:17;96011.13;;;10.42;61.85
35649;BME280;21768;48.562;13.414;2023-04-01T01:42:47;96013.72;;;10.43;61.81
35649;BME280;21768;48.562;13.414;2023-04-01T01:45:16;96016.97;;;10.41;62.17
35649;BME280;21768;48.562;13.414;2023-04-01T01:47:43;96011.22;;;10.43;62.50
35649;BME280;21768;48.562;13.414;2023-04-01T01:50:10;96003.66;;;10.43;61.78
35649;BME280;21768;48.562;13.414;2023-04-01T01:52:36;96005.31;;;10.43;61.94
35649;BME280;21768;48.562;13.414;2023-04-01T01:55:02;96010.28;;;10.41;62.04
35649;BME280;21768;48.562;13.414;2023-04-01T01:57:36;96000.19;;;10.41;61.95
35649;BME280;21768;48.562;13.414;2023-04-01T02:00:07;96007.88;;;10.44;62.36
35649;BME280;21768;48.562;13.414;2023-04-01T02:02:42;96005.50;;;10.47;62.70
35649;BME280;21768;48.562;13.414;2023-04-01T02:05:17;95997.94;;;10.47;62.44
35649;BME280;21768;48.562;13.414;2023-04-01T02:07:48;96005.50;;;10.47;62.72
35649;BME280;21768;48.562;13.414;2023-04-01T02:10:17;96011.22;;;10.43;62.19
35649;BME280;21768;48.562;13.414;2023-04-01T02:12:45;96006.03;;;10.40;62.38
35649;BME280;21768;48.562;13.414;2023-04-01T02:15:13;96007.59;;;10.37;62.11
35649;BME280;21768;48.562;13.414;2023-04-01T02:17:43;96002.28;;;10.31;62.54
35649;BME280;21768;48.562;13.414;2023-04-01T02:20:12;96003.00;;;10.28;62.45
35649;BME280;21768;48.562;13.414;2023-04-01T02:22:43;96002.88;;;10.25;62.40
35649;BME280;21768;48.562;13.414;2023-04-01T02:25:32;96007.97;;;10.27;62.54
35649;BME280;21768;48.562;13.414;2023-04-01T02:27:59;96002.28;;;10.31;62.96
35649;BME280;21768;48.562;13.414;2023-04-01T02:30:27;96008.25;;;10.33;62.87
35649;BME280;21768;48.562;13.414;2023-04-01T02:32:55;96002.41;;;10.34;62.68
35649;BME280;21768;48.562;13.414;2023-04-01T02:35:22;96003.41;;;10.37;62.75
35649;BME280;21768;48.562;13.414;2023-04-01T02:37:49;96005.22;;;10.41;63.03
35649;BME280;21768;48.562;13.414;2023-04-01T02:40:16;96007.75;;;10.41;62.72
35649;BME280;21768;48.562;13.414;2023-04-01T02:42:42;96001.00;;;10.40;63.16
35649;BME280;21768;48.562;13.414;2023-04-01T02:45:08;96005.59;;;10.30;62.98
35649;BME280;21768;48.562;13.414;2023-04-01T02:47:34;96010.22;;;10.20;63.83
35649;BME280;21768;48.562;13.414;2023-04-01T02:50:00;95996.53;;;10.15;63.83
35649;BME280;21768;48.562;13.414;2023-04-01T02:52:27;96005.63;;;10.12;64.00
35649;BME280;21768;48.562;13.414;2023-04-01T02:54:53;96003.13;;;10.12;64.13
35649;BME280;21768;48.562;13.414;2023-04-01T02:57:18;96009.88;;;10.13;64.29
35649;BME280;21768;48.562;13.414;2023-04-01T02:59:44;96015.72;;;10.12;64.28
35649;BME280;21768;48.562;13.414;2023-04-01T03:02:09;96003.97;;;10.12;64.15
35649;BME280;21768;48.562;13.414;2023-04-01T03:04:35;96009.59;;;10.07;64.34
35649;BME280;21768;48.562;13.414;2023-04-01T03:07:00;96012.91;;;10.06;64.02
35649;BME280;21768;48.562;13.414;2023-04-01T03:09:26;96017.16;;;10.07;63.98
35649;BME280;21768;48.562;13.414;2023-04-01T03:11:52;96011.19;;;10.05;64.08
35649;BME280;21768;48.562;13.414;2023-04-01T03:14:17;96016.22;;;10.05;64.07
35649;BME280;21768;48.562;13.414;2023-04-01T03:16:42;96025.38;;;10.03;64.10
35649;BME280;21768;48.562;13.414;2023-04-01T03:19:08;96016.16;;;10.03;63.87
35649;BME280;21768;48.562;13.414;2023-04-01T03:21:33;96016.88;;;10.01;63.67
35649;BME280;21768;48.562;13.414;2023-04-01T03:23:59;96025.22;;;10.00;63.86
35649;BME280;21768;48.562;13.414;2023-04-01T03:26:24;96022.78;;;10.01;63.85
35649;BME280;21768;48.562;13.414;2023-04-01T03:28:52;96025.22;;;10.00;63.97
35649;BME280;21768;48.562;13.414;2023-04-01T03:31:18;96020.19;;;10.00;64.12
35649;BME280;21768;48.562;13.414;2023-04-01T03:33:44;96015.22;;;10.01;63.60
35649;BME280;21768;48.562;13.414;2023-04-01T03:36:10;96016.09;;;10.02;63.92
35649;BME280;21768;48.562;13.414;2023-04-01T03:38:37;96034.72;;;10.05;63.46
35649;BME280;21768;48.562;13.414;2023-04-01T03:41:02;96037.31;;;10.07;63.59
35649;BME280;21768;48.562;13.414;2023-04-01T03:43:28;96044.22;;;10.11;63.54
35649;BME280;21768;48.562;13.414;2023-04-01T03:45:54;96042.50;;;10.10;63.35
35649;BME280;21768;48.562;13.414;2023-04-01T03:48:20;96047.53;;;10.10;63.46
35649;BME280;21768;48.562;13.414;2023-04-01T03:50:46;96041.63;;;10.09;63.60
35649;BME280;21768;48.562;13.414;2023-04-01T03:53:12;96040.03;;;10.11;62.86
35649;BME280;21768;48.562;13.414;2023-04-01T03:55:37;96049.41;;;10.14;63.36
35649;BME280;21768;48.562;13.414;2023-04-01T03:58:04;96046.06;;;10.15;63.12
35649;BME280;21768;48.562;13.414;2023-04-01T04:00:30;96048.41;;;10.10;63.11
35649;BME280;21768;48.562;13.414;2023-04-01T04:02:56;96035.59;;;10.06;63.36
35649;BME280;21768;48.562;13.414;2023-04-01T04:05:23;96037.31;;;10.07;63.20
35649;BME280;21768;48.562;13.414;2023-04-01T04:07:48;96046.47;;;10.05;63.15
35649;BME280;21768;48.562;13.414;2023-04-01T04:10:14;96045.66;;;10.06;62.97
35649;BME280;21768;48.562;13.414;2023-04-01T04:12:39;96054.03;;;10.05;62.94
35649;BME280;21768;48.562;13.414;2023-04-01T04:15:06;96052.28;;;10.04;62.86
35649;BME280;21768;48.562;13.414;2023-04-01T04:17:31;96059.06;;;10.05;62.91
35649;BME280;21768;48.562;13.414;2023-04-01T04:19:56;96056.53;;;10.05;63.10
35649;BME280;21768;48.562;13.414;2023-04-01T04:22:22;96054.03;;;10.05;63.07
35649;BME280;21768;48.562;13.414;2023-04-01T04:24:47;96055.59;;;10.03;63.13
35649;BME280;21768;48.562;13.414;2023-04-01T04:27:13;96060.66;;;10.03;63.13
35649;BME280;21768;48.562;13.414;2023-04-01T04:29:38;96057.34;;;10.04;63.21
35649;BME280;21768;48.562;13.414;2023-04-01T04:32:03;96068.19;;;10.03;62.95
35649;BME280;21768;48.562;13.414;2023-04-01T04:34:29;96050.72;;;10.06;62.82
35649;BME280;21768;48.562;13.414;2023-04-01T04:36:54;96060.78;;;10.06;62.87
35649;BME280;21768;48.562;13.414;2023-04-01T04:39:19;96058.25;;;10.06;63.01
35649;BME280;21768;48.562;13.414;2023-04-01T04:41:45;96073.38;;;10.06;62.78
35649;BME280;21768;48.562;13.414;2023-04-01T04:44:10;96069.94;;;10.04;62.82
35649;BME280;21768;48.562;13.414;2023-04-01T04:46:36;96069.13;;;10.05;62.90
35649;BME280;21768;48.562;13.414;2023-04-01T04:49:02;96078.50;;;10.07;62.96
35649;BME280;21768;48.562;13.414;2023-04-01T04:51:28;96079.50;;;10.11;63.13
35649;BME280;21768;48.562;13.414;2023-04-01T04:53:53;96082.97;;;10.13;63.07
35649;BME280;21768;48.562;13.414;2023-04-01T04:56:20;96077.78;;;10.10;63.01
35649;BME280;21768;48.562;13.414;2023-04-01T04:58:46;96085.34;;;10.10;62.61
35649;BME280;21768;48.562;13.414;2023-04-01T05:01:14;96077.78;;;10.10;62.83
35649;BME280;21768;48.562;13.414;2023-04-01T05:03:41;96086.38;;;10.15;62.73
35649;BME280;21768;48.562;13.414;2023-04-01T05:06:07;96097.47;;;10.18;62.98
35649;BME280;21768;48.562;13.414;2023-04-01T05:08:34;96095.72;;;10.17;63.40
35649;BME280;21768;48.562;13.414;2023-04-01T05:11:00;96097.31;;;10.15;63.80
35649;BME280;21768;48.562;13.414;2023-04-01T05:13:26;96092.91;;;10.10;64.70
35649;BME280;21768;48.562;13.414;2023-04-01T05:15:52;96092.53;;;10.02;64.70
35649;BME280;21768;48.562;13.414;2023-04-01T05:18:17;96081.31;;;9.96;64.87
35649;BME280;21768;48.562;13.414;2023-04-01T05:20:51;96100.38;;;9.90;65.24
35649;BME280;21768;48.562;13.414;2023-04-01T05:23:17;96099.66;;;9.93;65.30
35649;BME280;21768;48.562;13.414;2023-04-01T05:25:43;96109.03;;;9.96;65.15
35649;BME280;21768;48.562;13.414;2023-04-01T05:28:10;96098.16;;;9.97;64.97
35649;BME280;21768;48.562;13.414;2023-04-01T05:30:36;96103.97;;;9.96;64.67
35649;BME280;21768;48.562;13.414;2023-04-01T05:33:01;96114.06;;;9.96;64.54
35649;BME280;21768;48.562;13.414;2023-04-01T05:35:26;96113.19;;;9.95;64.30
35649;BME280;21768;48.562;13.414;2023-04-01T05:37:52;96107.28;;;9.95;64.27
35649;BME280;21768;48.562;13.414;2023-04-01T05:40:17;96109.16;;;9.99;64.33
35649;BME280;21768;48.562;13.414;2023-04-01T05:42:43;96097.78;;;10.07;64.48
35649;BME280;21768;48.562;13.414;2023-04-01T05:45:08;96117.28;;;10.11;64.14
35649;BME280;21768;48.562;13.414;2023-04-01T05:47:34;96095.47;;;10.11;64.04
35649;BME280;21768;48.562;13.414;2023-04-01T05:49:59;96103.22;;;10.16;64.04
35649;BME280;21768;48.562;13.414;2023-04-01T05:52:25;96104.25;;;10.19;64.41
35649;BME280;21768;48.562;13.414;2023-04-01T05:54:50;96103.53;;;10.22;63.81
35649;BME280;21768;48.562;13.414;2023-04-01T05:57:16;96103.53;;;10.22;63.86
35649;BME280;21768;48.562;13.414;2023-04-01T05:59:41;96106.47;;;10.31;63.73
35649;BME280;21768;48.562;13.414;2023-04-01T06:02:08;96114.44;;;10.40;63.59
35649;BME280;21768;48.562;13.414;2023-04-01T06:04:38;96111.97;;;10.42;62.91
35649;BME280;21768;48.562;13.414;2023-04-01T06:07:30;96114.19;;;10.34;62.67
35649;BME280;21768;48.562;13.414;2023-04-01T06:09:55;96112.19;;;10.27;62.65
35649;BME280;21768;48.562;13.414;2023-04-01T06:12:44;96132.47;;;10.30;63.00
35649;BME280;21768;48.562;13.414;2023-04-01T06:15:24;96117.50;;;10.33;62.34
35649;BME280;21768;48.562;13.414;2023-04-01T06:23:21;96123.41;;;10.34;61.78
35649;BME280;21768;48.562;13.414;2023-04-01T06:26:03;96131.13;;;10.37;61.55
35649;BME280;21768;48.562;13.414;2023-04-01T06:39:40;96139.34;;;10.52;60.79
35649;BME280;21768;48.562;13.414;2023-04-01T06:58:24;96120.53;;;10.63;60.93
35649;BME280;21768;48.562;13.414;2023-04-01T07:00:58;96125.59;;;10.65;60.35
35649;BME280;21768;48.562;13.414;2023-04-01T07:03:34;96113.81;;;10.64;60.70
35649;BME280;21768;48.562;13.414;2023-04-01T07:06:13;96113.41;;;10.74;60.70
35649;BME280;21768;48.562;13.414;2023-04-01T07:08:41;96112.28;;;10.86;60.77
35649;BME280;21768;48.562;13.414;2023-04-01T07:11:24;96113.50;;;10.96;60.27
35649;BME280;21768;48.562;13.414;2023-04-01T07:13:54;96111.47;;;11.07;60.08
35649;BME280;21768;48.562;13.414;2023-04-01T07:16:37;96111.09;;;11.18;59.63
35649;BME280;21768;48.562;13.414;2023-04-01T07:19:06;96116.66;;;11.31;59.43
35649;BME280;21768;48.562;13.414;2023-04-01T07:21:54;96118.13;;;11.46;59.63
35649;BME280;21768;48.562;13.414;2023-04-01T07:24:49;96120.66;;;11.67;59.62
35649;BME280;21768;48.562;13.414;2023-04-01T07:27:15;96119.84;;;11.68;58.96
35649;BME280;21768;48.562;13.414;2023-04-01T07:29:41;96116.41;;;11.66;58.81
35649;BME280;21768;48.562;13.414;2023-04-01T07:38:16;96112.69;;;12.00;58.42
35649;BME280;21768;48.562;13.414;2023-04-01T07:41:03;96118.19;;;12.10;57.93
35649;BME280;21768;48.562;13.414;2023-04-01T07:43:37;96125.81;;;12.12;57.11
35649;BME280;21768;48.562;13.414;2023-04-01T07:46:47;96123.63;;;12.21;57.52
35649;BME280;21768;48.562;13.414;2023-04-01T07:52:24;96126.94;;;12.20;57.54
35649;BME280;21768;48.562;13.414;2023-04-01T07:55:20;96128.78;;;12.24;56.47
35649;BME280;21768;48.562;13.414;2023-04-01T08:03:05;96134.31;;;12.36;56.25
35649;BME280;21768;48.562;13.414;2023-04-01T08:10:51;96131.94;;;12.41;55.42
35649;BME280;21768;48.562;13.414;2023-04-01T08:16:09;96125.63;;;12.52;55.61
35649;BME280;21768;48.562;13.414;2023-04-01T08:18:43;96117.59;;;12.64;54.80
35649;BME280;21768;48.562;13.414;2023-04-01T08:21:25;96120.25;;;12.67;55.04
35649;BME280;21768;48.562;13.414;2023-04-01T08:23:56;96126.09;;;12.66;55.22
35649;BME280;21768;48.562;13.414;2023-04-01T08:28:55;96111.59;;;12.60;53.98
35649;BME280;21768;48.562;13.414;2023-04-01T08:34:14;96119.47;;;12.45;54.52
35649;BME280;21768;48.562;13.414;2023-04-01T08:36:46;96130.88;;;12.34;54.83
35649;BME280;21768;48.562;13.414;2023-04-01T08:39:19;96133.28;;;12.31;54.41
35649;BME280;21768;48.562;13.414;2023-04-01T08:47:30;96126.88;;;12.41;54.11
35649;BME280;21768;48.562;13.414;2023-04-01T08:53:06;96121.97;;;12.68;53.72
35649;BME280;21768;48.562;13.414;2023-04-01T08:55:56;96119.72;;;12.99;53.90
35649;BME280;21768;48.562;13.414;2023-04-01T09:01:25;96122.47;;;13.05;52.41
35649;BME280;21768;48.562;13.414;2023-04-01T09:09:44;96119.81;;;12.54;53.47
35649;BME280;21768;48.562;13.414;2023-04-01T09:12:29;96135.44;;;12.67;54.06
35649;BME280;21768;48.562;13.414;2023-04-01T09:17:51;96125.19;;;12.64;54.16
35649;BME280;21768;48.562;13.414;2023-04-01T09:25:51;96113.66;;;14.81;51.74
35649;BME280;21768;48.562;13.414;2023-04-01T09:28:28;96102.28;;;18.89;42.49
35649;BME280;21768;48.562;13.414;2023-04-01T09:31:08;96092.38;;;19.20;41.72
35649;BME280;21768;48.562;13.414;2023-04-01T09:33:51;96100.66;;;18.31;41.80
35649;BME280;21768;48.562;13.414;2023-04-01T09:39:11;96108.00;;;17.57;41.48
35649;BME280;21768;48.562;13.414;2023-04-01T09:44:37;96109.88;;;15.29;44.82
35649;BME280;21768;48.562;13.414;2023-04-01T09:47:23;96112.66;;;15.07;45.01
35649;BME280;21768;48.562;13.414;2023-04-01T09:52:45;96108.59;;;14.52;46.13
35649;BME280;21768;48.562;13.414;2023-04-01T09:55:28;96112.25;;;14.34;46.61
35649;BME280;21768;48.562;13.414;2023-04-01T10:15:40;96108.59;;;15.47;43.66
35649;BME280;21768;48.562;13.414;2023-04-01T10:26:49;96100.56;;;14.67;46.03
35649;BME280;21768;48.562;13.414;2023-04-01T10:32:08;96093.78;;;14.39;47.25
35649;BME280;21768;48.562;13.414;2023-04-01T10:51:27;96059.59;;;21.58;35.32
35649;BME280;21768;48.562;13.414;2023-04-01T10:57:20;96052.72;;;21.79;34.72
35649;BME280;21768;48.562;13.414;2023-04-01T11:03:02;96057.63;;;19.42;36.18
35649;BME280;21768;48.562;13.414;2023-04-01T11:13:50;96059.06;;;18.41;38.17
35649;BME280;21768;48.562;13.414;2023-04-01T11:16:38;96051.38;;;17.76;38.60
35649;BME280;21768;48.562;13.414;2023-04-01T11:35:25;96084.75;;;14.19;48.67
35649;BME280;21768;48.562;13.414;2023-04-01T11:40:26;96087.09;;;13.84;51.09
35649;BME280;21768;48.562;13.414;2023-04-01T11:46:10;96095.31;;;13.77;51.84
35649;BME280;21768;48.562;13.414;2023-04-01T11:54:12;96116.97;;;13.17;55.22
35649;BME280;21768;48.562;13.414;2023-04-01T11:59:42;96079.25;;;13.77;56.26
35649;BME280;21768;48.562;13.414;2023-04-01T12:02:20;96077.84;;;14.15;54.69
35649;BME280;21768;48.562;13.414;2023-04-01T12:07:50;96067.78;;;14.45;53.36
35649;BME280;21768;48.562;13.414;2023-04-01T12:10:19;96073.28;;;14.60;52.38
35649;BME280;21768;48.562;13.414;2023-04-01T12:13:07;96075.63;;;14.52;52.94
35649;BME280;21768;48.562;13.414;2023-04-01T12:42:12;96075.78;;;14.02;55.16
35649;BME280;21768;48.562;13.414;2023-04-01T12:59:19;96076.00;;;13.54;54.69
35649;BME280;21768;48.562;13.414;2023-04-01T13:02:01;96074.97;;;13.49;54.73
35649;BME280;21768;48.562;13.414;2023-04-01T13:07:53;96069.31;;;13.56;54.09
35649;BME280;21768;48.562;13.414;2023-04-01T13:10:35;96099.88;;;13.35;55.27
35649;BME280;21768;48.562;13.414;2023-04-01T13:16:14;96084.06;;;13.17;56.55
35649;BME280;21768;48.562;13.414;2023-04-01T13:24:31;96082.66;;;13.01;56.48
35649;BME280;21768;48.562;13.414;2023-04-01T13:29:36;96084.00;;;13.15;57.16
35649;BME280;21768;48.562;13.414;2023-04-01T13:42:54;96096.78;;;13.18;56.94
35649;BME280;21768;48.562;13.414;2023-04-01T13:45:26;96098.00;;;13.06;56.81
35649;BME280;21768;48.562;13.414;2023-04-01T14:21:29;96136.63;;;12.30;59.16
35649;BME280;21768;48.562;13.414;2023-04-01T14:41:19;96153.66;;;12.13;58.40
35649;BME280;21768;48.562;13.414;2023-04-01T14:43:54;96141.53;;;12.05;58.95
35649;BME280;21768;48.562;13.414;2023-04-01T14:49:51;96156.84;;;12.08;59.63
35649;BME280;21768;48.562;13.414;2023-04-01T14:51:52;96155.09;;;12.07;60.57
35649;BME280;21768;48.562;13.414;2023-04-01T14:54:32;96164.34;;;12.06;60.79
35649;BME280;21768;48.562;13.414;2023-04-01T14:59:41;96157.06;;;11.72;61.82
35649;BME280;21768;48.562;13.414;2023-04-01T15:04:49;96144.88;;;11.62;63.34
35649;BME280;21768;48.562;13.414;2023-04-01T15:12:37;96171.34;;;11.51;63.98
35649;BME280;21768;48.562;13.414;2023-04-01T15:15:24;96170.81;;;11.37;64.26
35649;BME280;21768;48.562;13.414;2023-04-01T15:18:20;96170.22;;;11.23;64.69
35649;BME280;21768;48.562;13.414;2023-04-01T15:29:24;96170.97;;;11.02;66.85
35649;BME280;21768;48.562;13.414;2023-04-01T15:32:00;96176.38;;;10.91;67.20
35649;BME280;21768;48.562;13.414;2023-04-01T15:42:51;96176.94;;;10.84;68.04
35649;BME280;21768;48.562;13.414;2023-04-01T16:02:07;96174.06;;;11.35;67.95
35649;BME280;21768;48.562;13.414;2023-04-01T16:04:59;96168.59;;;11.25;67.88
35649;BME280;21768;48.562;13.414;2023-04-01T16:07:37;96175.91;;;11.19;68.95
35649;BME280;21768;48.562;13.414;2023-04-01T16:10:26;96175.41;;;11.07;68.90
35649;BME280;21768;48.562;13.414;2023-04-01T16:23:56;96174.00;;;10.95;69.56
35649;BME280;21768;48.562;13.414;2023-04-01T16:26:55;96179.63;;;10.89;69.58
35649;BME280;21768;48.562;13.414;2023-04-01T16:34:53;96187.69;;;10.80;70.17
35649;BME280;21768;48.562;13.414;2023-04-01T16:37:29;96189.41;;;10.81;70.11
35649;BME280;21768;48.562;13.414;2023-04-01T16:40:16;96195.78;;;10.73;70.41
35649;BME280;21768;48.562;13.414;2023-04-01T16:42:53;96189.06;;;10.74;70.61
35649;BME280;21768;48.562;13.414;2023-04-01T16:45:30;96197.50;;;10.74;70.80
35649;BME280;21768;48.562;13.414;2023-04-01T16:48:05;96198.44;;;10.76;70.96
35649;BME280;21768;48.562;13.414;2023-04-01T16:50:59;96205.88;;;10.73;70.80
35649;BME280;21768;48.562;13.414;2023-04-01T16:53:36;96205.78;;;10.72;71.08
35649;BME280;21768;48.562;13.414;2023-04-01T16:56:22;96204.13;;;10.72;71.44
35649;BME280;21768;48.562;13.414;2023-04-01T17:01:27;96204.72;;;10.67;71.58
35649;BME280;21768;48.562;13.414;2023-04-01T17:04:00;96209.66;;;10.64;71.99
35649;BME280;21768;48.562;13.414;2023-04-01T17:12:30;96207.13;;;10.64;71.96
35649;BME280;21768;48.562;13.414;2023-04-01T17:20:43;96221.41;;;10.63;72.08
35649;BME280;21768;48.562;13.414;2023-04-01T17:52:44;96247.91;;;10.55;72.73
35649;BME280;21768;48.562;13.414;2023-04-01T18:17:27;96269.63;;;10.34;73.17
35649;BME280;21768;48.562;13.414;2023-04-01T18:22:56;96268.59;;;10.30;73.30
35649;BME280;21768;48.562;13.414;2023-04-01T18:25:32;96276.16;;;10.30;73.47
35649;BME280;21768;48.562;13.414;2023-04-01T18:28:34;96284.66;;;10.32;73.36
35649;BME280;21768;48.562;13.414;2023-04-01T18:36:58;96290.66;;;10.34;73.45
35649;BME280;21768;48.562;13.414;2023-04-01T18:39:40;96296.72;;;10.38;73.60
35649;BME280;21768;48.562;13.414;2023-04-01T18:42:15;96290.81;;;10.37;73.63
35649;BME280;21768;48.562;13.414;2023-04-01T18:44:46;96296.63;;;10.36;73.66
35649;BME280;21768;48.562;13.414;2023-04-01T18:52:43;96311.09;;;10.40;74.11
35649;BME280;21768;48.562;13.414;2023-04-01T18:55:29;96315.34;;;10.41;74.09
35649;BME280;21768;48.562;13.414;2023-04-01T18:58:42;96322.34;;;10.47;73.26
35649;BME280;21768;48.562;13.414;2023-04-01T19:03:41;96321.16;;;10.40;73.55
35649;BME280;21768;48.562;13.414;2023-04-01T19:09:09;96323.28;;;10.31;73.94
35649;BME280;21768;48.562;13.414;2023-04-01T19:11:49;96321.75;;;10.35;73.78
35649;BME280;21768;48.562;13.414;2023-04-01T19:17:21;96324.22;;;10.33;73.92
35649;BME280;21768;48.562;13.414;2023-04-01T19:20:34;96322.78;;;10.38;73.36
35649;BME280;21768;48.562;13.414;2023-04-01T19:28:22;96333.13;;;10.44;73.64
35649;BME280;21768;48.562;13.414;2023-04-01T19:30:56;96329.81;;;10.45;73.30
35649;BME280;21768;48.562;13.414;2023-04-01T19:36:29;96331.41;;;10.43;72.94
35649;BME280;21768;48.562;13.414;2023-04-01T19:42:06;96341.34;;;10.40;73.01
35649;BME280;21768;48.562;13.414;2023-04-01T19:44:46;96341.50;;;10.43;73.20
35649;BME280;21768;48.562;13.414;2023-04-01T19:52:56;96353.03;;;10.38;73.49
35649;BME280;21768;48.562;13.414;2023-04-01T19:55:41;96353.91;;;10.39;73.13
35649;BME280;21768;48.562;13.414;2023-04-01T20:00:44;96358.19;;;10.41;73.23
35649;BME280;21768;48.562;13.414;2023-04-01T20:03:34;96354.63;;;10.36;73.28
35649;BME280;21768;48.562;13.414;2023-04-01T20:08:37;96359.19;;;10.27;73.51
35649;BME280;21768;48.562;13.414;2023-04-01T20:16:12;96358.81;;;10.19;73.86
35649;BME280;21768;48.562;13.414;2023-04-01T20:18:55;96355.50;;;10.20;74.06
35649;BME280;21768;48.562;13.414;2023-04-01T20:26:33;96352.72;;;10.16;74.35
35649;BME280;21768;48.562;13.414;2023-04-01T20:45:46;96362.44;;;10.08;74.58
35649;BME280;21768;48.562;13.414;2023-04-01T20:48:39;96361.72;;;10.11;74.46
35649;BME280;21768;48.562;13.414;2023-04-01T20:51:18;96361.72;;;10.11;74.35
35649;BME280;21768;48.562;13.414;2023-04-01T20:54:21;96365.81;;;10.09;74.52
35649;BME280;21768;48.562;13.414;2023-04-01T20:57:12;96360.78;;;10.09;74.49
35649;BME280;21768;48.562;13.414;2023-04-01T21:07:58;96371.09;;;10.13;74.48
35649;BME280;21768;48.562;13.414;2023-04-01T21:10:43;96374.50;;;10.14;74.50
35649;BME280;21768;48.562;13.414;2023-04-01T21:15:58;96380.31;;;10.13;74.52
35649;BME280;21768;48.562;13.414;2023-04-01T21:26:47;96389.06;;;10.03;74.31
35649;BME280;21768;48.562;13.414;2023-04-01T21:29:46;96386.22;;;9.97;74.19
35649;BME280;21768;48.562;13.414;2023-04-01T21:38:00;96395.28;;;9.94;74.14
35649;BME280;21768;48.562;13.414;2023-04-01T21:54:21;96420.31;;;9.90;74.09
35649;BME280;21768;48.562;13.414;2023-04-01T22:02:45;96426.16;;;9.89;73.74
35649;BME280;21768;48.562;13.414;2023-04-01T22:14:01;96425.06;;;9.84;74.06
35649;BME280;21768;48.562;13.414;2023-04-01T22:16:48;96432.44;;;9.81;74.00
35649;BME280;21768;48.562;13.414;2023-04-01T22:19:20;96433.00;;;9.76;74.15
35649;BME280;21768;48.562;13.414;2023-04-01T22:30:19;96436.63;;;9.81;74.11
35649;BME280;21768;48.562;13.414;2023-04-01T22:32:50;96432.44;;;9.81;74.09
35649;BME280;21768;48.562;13.414;2023-04-01T22:35:28;96431.75;;;9.84;74.18
35649;BME280;21768;48.562;13.414;2023-04-01T22:38:27;96426.09;;;9.88;74.14
35649;BME280;21768;48.562;13.414;2023-04-01T22:41:16;96426.78;;;9.85;74.15
35649;BME280;21768;48.562;13.414;2023-04-01T22:43:46;96426.53;;;9.81;74.00
35649;BME280;21768;48.562;13.414;2023-04-01T22:49:22;96425.06;;;9.84;74.11
35649;BME280;21768;48.562;13.414;2023-04-01T22:52:11;96433.41;;;9.83;74.15
35649;BME280;21768;48.562;13.414;2023-04-01T22:57:12;96434.28;;;9.84;73.85
35649;BME280;21768;48.562;13.414;2023-04-01T22:59:48;96433.41;;;9.83;73.92
35649;BME280;21768;48.562;13.414;2023-04-01T23:02:23;96436.09;;;9.86;73.68
35649;BME280;21768;48.562;13.414;2023-04-01T23:04:55;96433.47;;;9.85;73.40
35649;BME280;21768;48.562;13.414;2023-04-01T23:10:02;96440.16;;;9.84;73.84
35649;BME280;21768;48.562;13.414;2023-04-01T23:12:29;96436.78;;;9.84;73.67